Boa Tyr — LAMU — position and weather

sailwx.info

Track history (hours):
 
Tides and Currents Weather Stations Pressure Air Temp Water Temp Dewpoint Dewpoint Depression Visibility Wind Speed Wind Dir Waves Ship Positions

Boa Tyr

Last reported at 2014-Jul-25 10:23 UTC. Time now 2014-Jul-25 11:28 UTC.
Position N 66°01' E 012°38'.

Length 33 m; draft 4.8 m.

Type: Tug. MMSI: 258395000.

Date/timePositionNaut miles runAvg speedWind from/ knotsBaromVisibWave heightAir tempDewpointWater temp
2014-Jul-25 10:23N 66°01' E 012°38'23 1.1
2014-Jul-24 13:33N 66°23' E 012°58'18 9.2
2014-Jul-24 11:33N 66°41' E 013°08'37 9.1
2014-Jul-24 07:32N 67°10' E 014°04'9 9.7
2014-Jul-24 06:33N 67°17' E 014°22'0 0.4
2014-Jul-24 05:25N 67°17' E 014°23'0 0.0
2014-Jul-24 04:31N 67°17' E 014°23'0 0.0
2014-Jul-24 03:31N 67°17' E 014°23'0 0.0
2014-Jul-24 02:31N 67°17' E 014°23'0 0.0
2014-Jul-24 01:31N 67°17' E 014°23'0 0.0
2014-Jul-24 00:28N 67°17' E 014°23'0 0.0
2014-Jul-23 23:31N 67°17' E 014°23'0 0.0
2014-Jul-23 22:31N 67°17' E 014°23'0 0.0
2014-Jul-23 21:31N 67°17' E 014°23'0 0.0
2014-Jul-23 20:31N 67°17' E 014°23'1 0.8
2014-Jul-23 19:33N 67°18' E 014°23'9 9.3
2014-Jul-23 18:33N 67°27' E 014°31'10 9.5
2014-Jul-23 17:33N 67°36' E 014°31'  
Track history (hours):
 
Tides and Currents Weather Stations Pressure Air Temp Water Temp Dewpoint Dewpoint Depression Visibility Wind Speed Wind Dir Waves Ship Positions

Boa Tyr

Last reported at 2014-Jul-25 10:23 UTC. Time now 2014-Jul-25 11:28 UTC.
Position N 66°01' E 012°38'.

Length 33 m; draft 4.8 m.

Type: Tug. MMSI: 258395000.

Date/timePositionNaut miles runAvg speedWind from/ knotsBaromVisibWave heightAir tempDewpointWater temp
2014-Jul-25 10:23N 66°01' E 012°38'23 1.1
2014-Jul-24 13:33N 66°23' E 012°58'18 9.2
2014-Jul-24 11:33N 66°41' E 013°08'37 9.1
2014-Jul-24 07:32N 67°10' E 014°04'9 9.7
2014-Jul-24 06:33N 67°17' E 014°22'0 0.4
2014-Jul-24 05:25N 67°17' E 014°23'0 0.0
2014-Jul-24 04:31N 67°17' E 014°23'0 0.0
2014-Jul-24 03:31N 67°17' E 014°23'0 0.0
2014-Jul-24 02:31N 67°17' E 014°23'0 0.0
2014-Jul-24 01:31N 67°17' E 014°23'0 0.0
2014-Jul-24 00:28N 67°17' E 014°23'0 0.0
2014-Jul-23 23:31N 67°17' E 014°23'0 0.0
2014-Jul-23 22:31N 67°17' E 014°23'0 0.0
2014-Jul-23 21:31N 67°17' E 014°23'0 0.0
2014-Jul-23 20:31N 67°17' E 014°23'1 0.8
2014-Jul-23 19:33N 67°18' E 014°23'9 9.3
2014-Jul-23 18:33N 67°27' E 014°31'10 9.5
2014-Jul-23 17:33N 67°36' E 014°31'  

Dump ship's entire track history